sensor_id;sensor_type;location;lat;lon;timestamp;pressure;altitude;pressure_sealevel;temperature;humidity
23170;BME280;11753;43.144;24.714;2023-08-24T00:05:58;99467.41;;;25.17;68.36
23170;BME280;11753;43.144;24.714;2023-08-24T00:07:38;99469.03;;;25.18;68.17
23170;BME280;11753;43.144;24.714;2023-08-24T00:12:38;99470.34;;;25.16;68.85
23170;BME280;11753;43.144;24.714;2023-08-24T00:17:39;99472.16;;;25.10;69.12
23170;BME280;11753;43.144;24.714;2023-08-24T00:22:21;99456.81;;;25.11;69.46
23170;BME280;11753;43.144;24.714;2023-08-24T00:27:21;99456.69;;;25.01;69.73
23170;BME280;11753;43.144;24.714;2023-08-24T00:28:22;99467.13;;;24.97;69.69
23170;BME280;11753;43.144;24.714;2023-08-24T00:29:22;99464.44;;;24.97;69.86
23170;BME280;11753;43.144;24.714;2023-08-24T00:30:23;99466.06;;;24.98;69.69
23170;BME280;11753;43.144;24.714;2023-08-24T00:31:23;99468.47;;;24.99;69.68
23170;BME280;11753;43.144;24.714;2023-08-24T00:32:23;99469.53;;;24.93;69.82
23170;BME280;11753;43.144;24.714;2023-08-24T00:33:24;99477.88;;;24.97;69.73
23170;BME280;11753;43.144;24.714;2023-08-24T00:34:24;99476.81;;;24.98;69.84
23170;BME280;11753;43.144;24.714;2023-08-24T00:35:26;99470.38;;;24.99;69.32
23170;BME280;11753;43.144;24.714;2023-08-24T00:36:47;99474.69;;;25.00;69.43
23170;BME280;11753;43.144;24.714;2023-08-24T00:41:20;99460.66;;;24.98;69.57
23170;BME280;11753;43.144;24.714;2023-08-24T00:42:22;99466.88;;;24.98;69.04
23170;BME280;11753;43.144;24.714;2023-08-24T00:43:23;99464.34;;;24.92;69.52
23170;BME280;11753;43.144;24.714;2023-08-24T00:44:24;99463.88;;;24.95;69.20
23170;BME280;11753;43.144;24.714;2023-08-24T00:45:24;99462.25;;;24.94;69.51
23170;BME280;11753;43.144;24.714;2023-08-24T00:46:25;99462.00;;;24.95;69.25
23170;BME280;11753;43.144;24.714;2023-08-24T00:47:27;99462.53;;;24.97;69.04
23170;BME280;11753;43.144;24.714;2023-08-24T00:48:27;99469.06;;;25.02;68.65
23170;BME280;11753;43.144;24.714;2023-08-24T00:49:29;99464.94;;;24.94;68.58
23170;BME280;11753;43.144;24.714;2023-08-24T00:50:30;99457.97;;;24.98;68.36
23170;BME280;11753;43.144;24.714;2023-08-24T00:51:30;99468.13;;;24.91;68.73
23170;BME280;11753;43.144;24.714;2023-08-24T00:52:31;99470.75;;;24.86;69.20
23170;BME280;11753;43.144;24.714;2023-08-24T00:53:32;99471.25;;;24.83;69.11
23170;BME280;11753;43.144;24.714;2023-08-24T00:54:33;99467.00;;;24.87;69.00
23170;BME280;11753;43.144;24.714;2023-08-24T00:55:33;99471.19;;;24.78;69.16
23170;BME280;11753;43.144;24.714;2023-08-24T00:56:34;99469.00;;;24.75;69.17
23170;BME280;11753;43.144;24.714;2023-08-24T00:57:35;99464.09;;;24.71;69.59
23170;BME280;11753;43.144;24.714;2023-08-24T00:58:37;99466.22;;;24.69;69.41
23170;BME280;11753;43.144;24.714;2023-08-24T00:59:38;99470.06;;;24.74;69.58
23170;BME280;11753;43.144;24.714;2023-08-24T01:00:39;99465.75;;;24.73;69.43
23170;BME280;11753;43.144;24.714;2023-08-24T01:01:39;99463.91;;;24.78;69.43
23170;BME280;11753;43.144;24.714;2023-08-24T01:02:42;99460.66;;;24.76;69.50
23170;BME280;11753;43.144;24.714;2023-08-24T01:03:42;99466.59;;;24.78;69.40
23170;BME280;11753;43.144;24.714;2023-08-24T01:04:42;99463.63;;;24.75;69.60
23170;BME280;11753;43.144;24.714;2023-08-24T01:05:43;99465.75;;;24.73;69.63
23170;BME280;11753;43.144;24.714;2023-08-24T01:06:44;99466.84;;;24.77;69.45
23170;BME280;11753;43.144;24.714;2023-08-24T01:07:45;99463.09;;;24.78;69.15
23170;BME280;11753;43.144;24.714;2023-08-24T01:08:45;99469.56;;;24.77;69.18
23170;BME280;11753;43.144;24.714;2023-08-24T01:09:46;99462.28;;;24.77;69.36
23170;BME280;11753;43.144;24.714;2023-08-24T01:10:48;99460.41;;;24.78;68.94
23170;BME280;11753;43.144;24.714;2023-08-24T01:12:05;99459.84;;;24.76;69.13
23170;BME280;11753;43.144;24.714;2023-08-24T01:13:11;99459.84;;;24.76;68.95
23170;BME280;11753;43.144;24.714;2023-08-24T01:15:33;99457.16;;;24.76;68.89
23170;BME280;11753;43.144;24.714;2023-08-24T01:16:37;99453.97;;;24.79;68.74
23170;BME280;11753;43.144;24.714;2023-08-24T01:17:42;99448.91;;;24.82;68.91
23170;BME280;11753;43.144;24.714;2023-08-24T01:18:42;99462.91;;;24.84;68.69
23170;BME280;11753;43.144;24.714;2023-08-24T01:19:44;99454.59;;;24.86;68.50
23170;BME280;11753;43.144;24.714;2023-08-24T01:20:44;99457.06;;;24.87;68.66
23170;BME280;11753;43.144;24.714;2023-08-24T01:21:46;99445.47;;;24.87;68.27
23170;BME280;11753;43.144;24.714;2023-08-24T01:22:58;99446.84;;;24.89;68.10
23170;BME280;11753;43.144;24.714;2023-08-24T01:26:11;99453.03;;;24.90;68.49
23170;BME280;11753;43.144;24.714;2023-08-24T01:27:12;99451.97;;;24.91;68.48
23170;BME280;11753;43.144;24.714;2023-08-24T01:28:12;99458.34;;;24.85;68.66
23170;BME280;11753;43.144;24.714;2023-08-24T01:29:13;99450.28;;;24.85;68.60
23170;BME280;11753;43.144;24.714;2023-08-24T01:30:14;99443.53;;;24.82;68.94
23170;BME280;11753;43.144;24.714;2023-08-24T01:31:15;99445.41;;;24.82;68.96
23170;BME280;11753;43.144;24.714;2023-08-24T01:32:18;99447.59;;;24.85;68.86
23170;BME280;11753;43.144;24.714;2023-08-24T01:33:19;99459.75;;;24.87;68.60
23170;BME280;11753;43.144;24.714;2023-08-24T01:34:19;99444.66;;;24.86;68.77
23170;BME280;11753;43.144;24.714;2023-08-24T01:35:19;99445.97;;;24.84;69.20
23170;BME280;11753;43.144;24.714;2023-08-24T01:36:20;99448.72;;;24.89;69.11
23170;BME280;11753;43.144;24.714;2023-08-24T01:37:21;99452.97;;;24.85;69.11
23170;BME280;11753;43.144;24.714;2023-08-24T01:38:21;99447.59;;;24.85;68.65
23170;BME280;11753;43.144;24.714;2023-08-24T01:42:03;99451.84;;;24.81;68.78
23170;BME280;11753;43.144;24.714;2023-08-24T01:43:05;99441.34;;;24.79;68.81
23170;BME280;11753;43.144;24.714;2023-08-24T01:44:07;99439.47;;;24.80;68.64
23170;BME280;11753;43.144;24.714;2023-08-24T01:45:09;99438.31;;;24.76;68.79
23170;BME280;11753;43.144;24.714;2023-08-24T01:46:11;99442.09;;;24.75;68.63
23170;BME280;11753;43.144;24.714;2023-08-24T01:47:12;99441.09;;;24.81;68.55
23170;BME280;11753;43.144;24.714;2023-08-24T01:48:13;99435.19;;;24.84;68.50
23170;BME280;11753;43.144;24.714;2023-08-24T01:49:13;99436.50;;;24.81;68.61
23170;BME280;11753;43.144;24.714;2023-08-24T01:50:14;99437.81;;;24.79;68.38
23170;BME280;11753;43.144;24.714;2023-08-24T01:51:15;99442.19;;;24.85;67.95
23170;BME280;11753;43.144;24.714;2023-08-24T01:52:15;99438.44;;;24.86;67.82
23170;BME280;11753;43.144;24.714;2023-08-24T01:53:16;99442.91;;;24.75;68.32
23170;BME280;11753;43.144;24.714;2023-08-24T01:54:17;99445.03;;;24.73;68.59
23170;BME280;11753;43.144;24.714;2023-08-24T01:55:20;99445.03;;;24.73;68.57
23170;BME280;11753;43.144;24.714;2023-08-24T01:56:20;99436.63;;;24.69;68.79
23170;BME280;11753;43.144;24.714;2023-08-24T01:57:21;99452.59;;;24.76;68.80
23170;BME280;11753;43.144;24.714;2023-08-24T01:58:21;99437.13;;;24.66;68.99
23170;BME280;11753;43.144;24.714;2023-08-24T01:59:21;99457.34;;;24.69;69.17
23170;BME280;11753;43.144;24.714;2023-08-24T02:00:22;99450.41;;;24.73;69.01
23170;BME280;11753;43.144;24.714;2023-08-24T02:01:22;99449.59;;;24.73;68.81
23170;BME280;11753;43.144;24.714;2023-08-24T02:02:23;99455.00;;;24.73;69.10
23170;BME280;11753;43.144;24.714;2023-08-24T02:03:24;99456.09;;;24.77;68.82
23170;BME280;11753;43.144;24.714;2023-08-24T02:04:24;99443.72;;;24.76;68.94
23170;BME280;11753;43.144;24.714;2023-08-24T02:05:24;99448.84;;;24.77;68.69
23170;BME280;11753;43.144;24.714;2023-08-24T02:06:27;99450.47;;;24.78;68.76
23170;BME280;11753;43.144;24.714;2023-08-24T02:07:28;99446.94;;;24.78;69.09
23170;BME280;11753;43.144;24.714;2023-08-24T02:08:28;99443.44;;;24.77;69.02
23170;BME280;11753;43.144;24.714;2023-08-24T02:09:28;99435.63;;;24.76;69.06
23170;BME280;11753;43.144;24.714;2023-08-24T02:10:30;99439.47;;;24.80;69.06
23170;BME280;11753;43.144;24.714;2023-08-24T02:11:30;99437.00;;;24.78;68.96
23170;BME280;11753;43.144;24.714;2023-08-24T02:12:30;99433.28;;;24.79;69.26
23170;BME280;11753;43.144;24.714;2023-08-24T02:13:31;99430.00;;;24.77;69.13
23170;BME280;11753;43.144;24.714;2023-08-24T02:14:31;99425.94;;;24.75;69.42
23170;BME280;11753;43.144;24.714;2023-08-24T02:15:32;99427.56;;;24.76;69.01
23170;BME280;11753;43.144;24.714;2023-08-24T02:16:32;99428.88;;;24.73;69.22
23170;BME280;11753;43.144;24.714;2023-08-24T02:17:33;99427.25;;;24.72;69.48
23170;BME280;11753;43.144;24.714;2023-08-24T02:18:34;99429.63;;;24.68;69.64
23170;BME280;11753;43.144;24.714;2023-08-24T02:19:35;99417.50;;;24.66;69.78
23170;BME280;11753;43.144;24.714;2023-08-24T02:20:35;99419.84;;;24.62;69.67
23170;BME280;11753;43.144;24.714;2023-08-24T02:21:36;99429.06;;;24.66;69.70
23170;BME280;11753;43.144;24.714;2023-08-24T02:22:37;99430.13;;;24.65;69.62
23170;BME280;11753;43.144;24.714;2023-08-24T02:23:38;99429.06;;;24.66;69.91
23170;BME280;11753;43.144;24.714;2023-08-24T02:24:38;99432.00;;;24.65;70.05
23170;BME280;11753;43.144;24.714;2023-08-24T02:25:41;99430.25;;;24.54;70.56
23170;BME280;11753;43.144;24.714;2023-08-24T02:26:42;99434.31;;;24.56;70.74
23170;BME280;11753;43.144;24.714;2023-08-24T02:27:42;99442.44;;;24.61;70.28
23170;BME280;11753;43.144;24.714;2023-08-24T02:28:42;99438.22;;;24.65;70.00
23170;BME280;11753;43.144;24.714;2023-08-24T02:29:43;99440.91;;;24.65;69.72
23170;BME280;11753;43.144;24.714;2023-08-24T02:30:43;99443.59;;;24.65;69.90
23170;BME280;11753;43.144;24.714;2023-08-24T02:31:43;99439.84;;;24.66;69.91
23170;BME280;11753;43.144;24.714;2023-08-24T02:32:44;99443.88;;;24.69;69.69
23170;BME280;11753;43.144;24.714;2023-08-24T02:33:44;99447.41;;;24.69;69.95
23170;BME280;11753;43.144;24.714;2023-08-24T02:34:45;99448.47;;;24.68;69.78
23170;BME280;11753;43.144;24.714;2023-08-24T02:35:48;99442.56;;;24.71;69.77
23170;BME280;11753;43.144;24.714;2023-08-24T02:36:48;99446.91;;;24.73;69.80
23170;BME280;11753;43.144;24.714;2023-08-24T02:37:48;99448.03;;;24.77;69.58
23170;BME280;11753;43.144;24.714;2023-08-24T02:38:49;99449.09;;;24.76;69.70
23170;BME280;11753;43.144;24.714;2023-08-24T02:39:50;99448.28;;;24.75;69.80
23170;BME280;11753;43.144;24.714;2023-08-24T02:40:59;99453.66;;;24.75;70.12
23170;BME280;11753;43.144;24.714;2023-08-24T02:42:00;99455.28;;;24.76;69.77
23170;BME280;11753;43.144;24.714;2023-08-24T02:43:00;99446.16;;;24.77;69.74
23170;BME280;11753;43.144;24.714;2023-08-24T02:44:01;99452.34;;;24.78;69.79
23170;BME280;11753;43.144;24.714;2023-08-24T02:45:01;99458.88;;;24.82;69.55
23170;BME280;11753;43.144;24.714;2023-08-24T02:46:03;99451.03;;;24.80;69.75
23170;BME280;11753;43.144;24.714;2023-08-24T02:47:04;99451.84;;;24.81;69.64
23170;BME280;11753;43.144;24.714;2023-08-24T02:48:04;99446.41;;;24.76;69.85
23170;BME280;11753;43.144;24.714;2023-08-24T02:49:05;99447.13;;;24.71;70.64
23170;BME280;11753;43.144;24.714;2023-08-24T02:50:05;99452.78;;;24.69;70.27
23170;BME280;11753;43.144;24.714;2023-08-24T02:51:09;99460.38;;;24.73;70.31
23170;BME280;11753;43.144;24.714;2023-08-24T02:52:10;99466.22;;;24.69;69.85
23170;BME280;11753;43.144;24.714;2023-08-24T02:53:10;99461.91;;;24.68;70.31
23170;BME280;11753;43.144;24.714;2023-08-24T02:54:10;99461.84;;;24.63;70.08
23170;BME280;11753;43.144;24.714;2023-08-24T02:55:11;99473.13;;;24.60;70.26
23170;BME280;11753;43.144;24.714;2023-08-24T02:56:11;99480.63;;;24.58;70.39
23170;BME280;11753;43.144;24.714;2023-08-24T03:00:39;99484.06;;;24.54;70.74
23170;BME280;11753;43.144;24.714;2023-08-24T03:01:39;99484.31;;;24.52;70.88
23170;BME280;11753;43.144;24.714;2023-08-24T03:02:41;99491.06;;;24.55;70.86
23170;BME280;11753;43.144;24.714;2023-08-24T03:03:41;99488.09;;;24.56;71.13
23170;BME280;11753;43.144;24.714;2023-08-24T03:04:42;99491.78;;;24.50;71.31
23170;BME280;11753;43.144;24.714;2023-08-24T03:05:55;99494.81;;;24.54;71.11
23170;BME280;11753;43.144;24.714;2023-08-24T03:06:56;99499.38;;;24.53;71.07
23170;BME280;11753;43.144;24.714;2023-08-24T03:07:57;99502.63;;;24.55;71.03
23170;BME280;11753;43.144;24.714;2023-08-24T03:08:59;99499.47;;;24.58;71.10
23170;BME280;11753;43.144;24.714;2023-08-24T03:09:59;99502.63;;;24.55;71.28
23170;BME280;11753;43.144;24.714;2023-08-24T03:11:00;99504.13;;;24.46;71.67
23170;BME280;11753;43.144;24.714;2023-08-24T03:12:01;99501.00;;;24.54;71.41
23170;BME280;11753;43.144;24.714;2023-08-24T03:13:01;99503.94;;;24.53;71.40
23170;BME280;11753;43.144;24.714;2023-08-24T03:14:04;99507.38;;;24.48;71.59
23170;BME280;11753;43.144;24.714;2023-08-24T03:15:04;99499.28;;;24.48;72.00
23170;BME280;11753;43.144;24.714;2023-08-24T03:16:05;99494.47;;;24.50;71.68
23170;BME280;11753;43.144;24.714;2023-08-24T03:17:06;99493.44;;;24.51;71.60
23170;BME280;11753;43.144;24.714;2023-08-24T03:18:07;99495.06;;;24.52;71.43
23170;BME280;11753;43.144;24.714;2023-08-24T03:19:07;99497.94;;;24.46;71.79
23170;BME280;11753;43.144;24.714;2023-08-24T03:20:08;99498.19;;;24.44;71.94
23170;BME280;11753;43.144;24.714;2023-08-24T03:21:10;99498.50;;;24.48;71.98
23170;BME280;11753;43.144;24.714;2023-08-24T03:22:18;99497.66;;;24.47;72.22
23170;BME280;11753;43.144;24.714;2023-08-24T03:32:36;99493.69;;;24.33;72.66
23170;BME280;11753;43.144;24.714;2023-08-24T03:33:37;99499.56;;;24.30;72.89
23170;BME280;11753;43.144;24.714;2023-08-24T03:34:37;99499.22;;;24.26;73.27
23170;BME280;11753;43.144;24.714;2023-08-24T03:35:39;99503.28;;;24.29;73.15
23170;BME280;11753;43.144;24.714;2023-08-24T03:36:40;99497.41;;;24.32;73.20
23170;BME280;11753;43.144;24.714;2023-08-24T03:37:40;99493.19;;;24.36;72.99
23170;BME280;11753;43.144;24.714;2023-08-24T03:38:41;99494.25;;;24.35;73.23
23170;BME280;11753;43.144;24.714;2023-08-24T03:39:41;99507.53;;;24.41;73.03
23170;BME280;11753;43.144;24.714;2023-08-24T03:40:42;99496.53;;;24.43;72.88
23170;BME280;11753;43.144;24.714;2023-08-24T03:41:44;99495.97;;;24.41;73.10
23170;BME280;11753;43.144;24.714;2023-08-24T03:42:44;99502.97;;;24.42;73.14
23170;BME280;11753;43.144;24.714;2023-08-24T03:43:45;99487.09;;;24.40;73.06
23170;BME280;11753;43.144;24.714;2023-08-24T03:51:46;99489.94;;;24.17;73.99
23170;BME280;11753;43.144;24.714;2023-08-24T03:52:46;99494.25;;;24.18;73.92
23170;BME280;11753;43.144;24.714;2023-08-24T03:53:47;99496.94;;;24.18;74.08
23170;BME280;11753;43.144;24.714;2023-08-24T03:54:47;99502.16;;;24.25;73.38
23170;BME280;11753;43.144;24.714;2023-08-24T03:55:48;99494.56;;;24.22;73.79
23170;BME280;11753;43.144;24.714;2023-08-24T03:56:53;99496.22;;;24.23;73.59
23170;BME280;11753;43.144;24.714;2023-08-24T03:57:55;99498.97;;;24.28;73.50
23170;BME280;11753;43.144;24.714;2023-08-24T03:58:57;99499.56;;;24.30;73.21
23170;BME280;11753;43.144;24.714;2023-08-24T03:59:57;99494.16;;;24.30;73.50
23170;BME280;11753;43.144;24.714;2023-08-24T04:00:58;99492.03;;;24.32;73.19
23170;BME280;11753;43.144;24.714;2023-08-24T04:01:58;99494.50;;;24.33;73.11
23170;BME280;11753;43.144;24.714;2023-08-24T04:03:01;99486.19;;;24.35;73.27
23170;BME280;11753;43.144;24.714;2023-08-24T04:04:05;99490.59;;;24.41;72.97
23170;BME280;11753;43.144;24.714;2023-08-24T04:05:05;99493.34;;;24.46;72.27
23170;BME280;11753;43.144;24.714;2023-08-24T04:06:06;99498.19;;;24.44;72.31
23170;BME280;11753;43.144;24.714;2023-08-24T04:07:07;99500.91;;;24.49;72.29
23170;BME280;11753;43.144;24.714;2023-08-24T04:08:08;99497.81;;;24.57;71.51
23170;BME280;11753;43.144;24.714;2023-08-24T04:09:08;99494.63;;;24.60;71.05
23170;BME280;11753;43.144;24.714;2023-08-24T04:10:09;99506.47;;;24.59;71.15
23170;BME280;11753;43.144;24.714;2023-08-24T04:11:09;99491.56;;;24.52;71.42
23170;BME280;11753;43.144;24.714;2023-08-24T04:12:10;99497.25;;;24.55;71.76
23170;BME280;11753;43.144;24.714;2023-08-24T04:13:10;99506.47;;;24.59;71.51
23170;BME280;11753;43.144;24.714;2023-08-24T04:14:11;99502.88;;;24.54;71.77
23170;BME280;11753;43.144;24.714;2023-08-24T04:15:12;99500.50;;;24.57;71.75
23170;BME280;11753;43.144;24.714;2023-08-24T04:16:12;99497.88;;;24.62;71.57
23170;BME280;11753;43.144;24.714;2023-08-24T04:17:13;99502.28;;;24.68;71.13
23170;BME280;11753;43.144;24.714;2023-08-24T04:18:14;99501.53;;;24.73;70.99
23170;BME280;11753;43.144;24.714;2023-08-24T04:19:14;99488.09;;;24.73;70.83
23170;BME280;11753;43.144;24.714;2023-08-24T04:20:15;99495.41;;;24.78;70.75
23170;BME280;11753;43.144;24.714;2023-08-24T04:21:18;99493.34;;;24.85;70.51
23170;BME280;11753;43.144;24.714;2023-08-24T04:22:18;99492.59;;;24.89;70.23
23170;BME280;11753;43.144;24.714;2023-08-24T04:23:25;99499.63;;;24.90;70.60
23170;BME280;11753;43.144;24.714;2023-08-24T04:24:51;99494.56;;;24.94;70.52
23170;BME280;11753;43.144;24.714;2023-08-24T04:29:14;99489.81;;;25.01;70.68
23170;BME280;11753;43.144;24.714;2023-08-24T04:38:45;99499.19;;;25.20;70.50
23170;BME280;11753;43.144;24.714;2023-08-24T04:43:21;99500.34;;;25.24;70.03
23170;BME280;11753;43.144;24.714;2023-08-24T04:44:29;99499.81;;;25.28;69.99
23170;BME280;11753;43.144;24.714;2023-08-24T04:45:36;99505.28;;;25.33;70.02
23170;BME280;11753;43.144;24.714;2023-08-24T04:50:13;99504.81;;;25.41;69.50
23170;BME280;11753;43.144;24.714;2023-08-24T04:51:13;99499.94;;;25.38;69.59
23170;BME280;11753;43.144;24.714;2023-08-24T04:52:14;99489.19;;;25.43;69.61
23170;BME280;11753;43.144;24.714;2023-08-24T04:53:15;99494.84;;;25.41;69.51
23170;BME280;11753;43.144;24.714;2023-08-24T04:54:16;99498.41;;;25.47;69.65
23170;BME280;11753;43.144;24.714;2023-08-24T04:55:17;99504.94;;;25.51;69.47
23170;BME280;11753;43.144;24.714;2023-08-24T04:56:17;99500.16;;;25.58;69.12
23170;BME280;11753;43.144;24.714;2023-08-24T04:57:21;99504.16;;;25.56;69.01
23170;BME280;11753;43.144;24.714;2023-08-24T04:58:21;99506.56;;;25.52;69.12
23170;BME280;11753;43.144;24.714;2023-08-24T05:04:44;99503.50;;;25.70;68.78
23170;BME280;11753;43.144;24.714;2023-08-24T05:09:05;99508.50;;;25.84;68.25
23170;BME280;11753;43.144;24.714;2023-08-24T05:10:09;99513.41;;;25.87;67.93
23170;BME280;11753;43.144;24.714;2023-08-24T05:11:18;99508.56;;;25.89;67.59
23170;BME280;11753;43.144;24.714;2023-08-24T05:12:19;99504.78;;;25.90;67.80
23170;BME280;11753;43.144;24.714;2023-08-24T05:13:20;99519.94;;;25.96;67.57
23170;BME280;11753;43.144;24.714;2023-08-24T05:14:20;99516.22;;;26.02;67.58
23170;BME280;11753;43.144;24.714;2023-08-24T05:15:21;99521.66;;;26.07;66.83
23170;BME280;11753;43.144;24.714;2023-08-24T05:16:21;99528.63;;;26.03;66.79
23170;BME280;11753;43.144;24.714;2023-08-24T05:17:22;99533.00;;;26.09;67.20
23170;BME280;11753;43.144;24.714;2023-08-24T05:18:24;99523.59;;;26.12;67.26
23170;BME280;11753;43.144;24.714;2023-08-24T05:19:25;99525.53;;;26.16;67.21
23170;BME280;11753;43.144;24.714;2023-08-24T05:20:25;99525.75;;;26.15;67.59
23170;BME280;11753;43.144;24.714;2023-08-24T05:21:28;99522.03;;;26.21;67.32
23170;BME280;11753;43.144;24.714;2023-08-24T05:23:43;99523.44;;;26.28;66.71
23170;BME280;11753;43.144;24.714;2023-08-24T05:24:46;99529.41;;;26.35;66.10
23170;BME280;11753;43.144;24.714;2023-08-24T05:25:47;99525.72;;;26.42;66.22
23170;BME280;11753;43.144;24.714;2023-08-24T05:26:47;99519.28;;;26.48;65.81
23170;BME280;11753;43.144;24.714;2023-08-24T05:27:48;99525.81;;;26.52;65.55
23170;BME280;11753;43.144;24.714;2023-08-24T05:28:58;99515.28;;;26.55;64.68
23170;BME280;11753;43.144;24.714;2023-08-24T05:30:01;99519.38;;;26.58;65.25
23170;BME280;11753;43.144;24.714;2023-08-24T05:31:01;99522.66;;;26.70;65.38
23170;BME280;11753;43.144;24.714;2023-08-24T05:35:32;99517.75;;;27.04;63.83
23170;BME280;11753;43.144;24.714;2023-08-24T05:38:28;99521.31;;;27.20;63.43
23170;BME280;11753;43.144;24.714;2023-08-24T05:39:35;99532.69;;;27.27;63.74
23170;BME280;11753;43.144;24.714;2023-08-24T05:40:35;99537.03;;;27.33;63.45
23170;BME280;11753;43.144;24.714;2023-08-24T05:41:39;99535.69;;;27.36;63.10
23170;BME280;11753;43.144;24.714;2023-08-24T05:42:39;99535.72;;;27.41;62.58
23170;BME280;11753;43.144;24.714;2023-08-24T05:43:43;99539.22;;;27.41;62.00
23170;BME280;11753;43.144;24.714;2023-08-24T05:44:43;99534.13;;;27.45;62.03
23170;BME280;11753;43.144;24.714;2023-08-24T05:45:44;99542.22;;;27.50;62.05
23170;BME280;11753;43.144;24.714;2023-08-24T05:46:46;99537.66;;;27.51;62.77
23170;BME280;11753;43.144;24.714;2023-08-24T05:47:47;99544.13;;;27.55;62.84
23170;BME280;11753;43.144;24.714;2023-08-24T05:48:47;99541.72;;;27.58;62.90
23170;BME280;11753;43.144;24.714;2023-08-24T05:49:48;99541.19;;;27.66;62.74
23170;BME280;11753;43.144;24.714;2023-08-24T05:51:05;99548.50;;;27.66;62.76
23170;BME280;11753;43.144;24.714;2023-08-24T05:52:20;99545.56;;;27.73;62.45
23170;BME280;11753;43.144;24.714;2023-08-24T05:53:20;99546.38;;;27.78;62.27
23170;BME280;11753;43.144;24.714;2023-08-24T05:54:28;99534.47;;;27.84;61.35
23170;BME280;11753;43.144;24.714;2023-08-24T05:55:28;99541.00;;;27.93;61.18
23170;BME280;11753;43.144;24.714;2023-08-24T05:56:29;99536.13;;;28.01;60.74
23170;BME280;11753;43.144;24.714;2023-08-24T05:57:34;99538.81;;;28.06;60.72
23170;BME280;11753;43.144;24.714;2023-08-24T05:58:36;99538.03;;;27.95;61.86
23170;BME280;11753;43.144;24.714;2023-08-24T05:59:37;99533.97;;;28.08;61.47
23170;BME280;11753;43.144;24.714;2023-08-24T06:00:37;99538.84;;;28.16;60.89
23170;BME280;11753;43.144;24.714;2023-08-24T06:01:41;99539.38;;;28.23;60.88
23170;BME280;11753;43.144;24.714;2023-08-24T06:02:41;99539.41;;;28.33;60.57
23170;BME280;11753;43.144;24.714;2023-08-24T06:03:42;99542.66;;;28.40;60.48
23170;BME280;11753;43.144;24.714;2023-08-24T06:04:47;99542.66;;;28.45;60.54
23170;BME280;11753;43.144;24.714;2023-08-24T06:05:53;99538.28;;;28.49;59.99
23170;BME280;11753;43.144;24.714;2023-08-24T06:06:56;99542.66;;;28.45;59.93
23170;BME280;11753;43.144;24.714;2023-08-24T06:07:59;99543.72;;;28.49;59.20
23170;BME280;11753;43.144;24.714;2023-08-24T06:09:00;99537.47;;;28.59;59.38
23170;BME280;11753;43.144;24.714;2023-08-24T06:10:01;99548.03;;;28.66;59.54
23170;BME280;11753;43.144;24.714;2023-08-24T06:11:01;99540.97;;;28.75;59.41
23170;BME280;11753;43.144;24.714;2023-08-24T06:12:02;99540.69;;;28.82;59.13
23170;BME280;11753;43.144;24.714;2023-08-24T06:13:02;99547.72;;;28.88;57.72
23170;BME280;11753;43.144;24.714;2023-08-24T06:14:03;99557.19;;;28.95;57.65
23170;BME280;11753;43.144;24.714;2023-08-24T06:15:08;99546.88;;;29.02;57.49
23170;BME280;11753;43.144;24.714;2023-08-24T06:16:10;99554.16;;;29.07;57.38
23170;BME280;11753;43.144;24.714;2023-08-24T06:17:11;99548.72;;;29.17;57.43
23170;BME280;11753;43.144;24.714;2023-08-24T06:18:11;99551.66;;;29.26;57.29
23170;BME280;11753;43.144;24.714;2023-08-24T06:19:14;99551.59;;;29.36;57.02
23170;BME280;11753;43.144;24.714;2023-08-24T06:20:15;99550.22;;;29.44;56.82
23170;BME280;11753;43.144;24.714;2023-08-24T06:21:16;99550.47;;;29.52;56.61
23170;BME280;11753;43.144;24.714;2023-08-24T06:22:19;99540.16;;;29.54;56.31
23170;BME280;11753;43.144;24.714;2023-08-24T06:23:22;99547.91;;;29.71;55.91
23170;BME280;11753;43.144;24.714;2023-08-24T06:24:28;99559.53;;;29.82;55.73
23170;BME280;11753;43.144;24.714;2023-08-24T06:25:29;99552.97;;;29.88;55.38
23170;BME280;11753;43.144;24.714;2023-08-24T06:26:29;99556.78;;;29.87;55.61
23170;BME280;11753;43.144;24.714;2023-08-24T06:27:30;99551.28;;;29.97;55.43
23170;BME280;11753;43.144;24.714;2023-08-24T06:28:30;99555.56;;;30.03;55.01
23170;BME280;11753;43.144;24.714;2023-08-24T06:29:33;99559.09;;;30.09;54.96
23170;BME280;11753;43.144;24.714;2023-08-24T06:30:36;99553.34;;;30.16;54.81
23170;BME280;11753;43.144;24.714;2023-08-24T06:31:38;99557.06;;;30.25;53.47
23170;BME280;11753;43.144;24.714;2023-08-24T06:32:41;99563.09;;;30.17;53.32
23170;BME280;11753;43.144;24.714;2023-08-24T06:33:44;99563.03;;;30.22;53.40
23170;BME280;11753;43.144;24.714;2023-08-24T06:34:45;99555.69;;;30.27;53.56
23170;BME280;11753;43.144;24.714;2023-08-24T06:35:45;99556.97;;;30.35;53.58
23170;BME280;11753;43.144;24.714;2023-08-24T06:36:49;99561.78;;;30.43;54.15
23170;BME280;11753;43.144;24.714;2023-08-24T06:37:55;99561.19;;;30.51;54.14
23170;BME280;11753;43.144;24.714;2023-08-24T06:38:55;99553.56;;;30.53;52.83
23170;BME280;11753;43.144;24.714;2023-08-24T06:39:56;99552.13;;;30.61;52.65
23170;BME280;11753;43.144;24.714;2023-08-24T06:40:58;99555.88;;;30.65;53.08
23170;BME280;11753;43.144;24.714;2023-08-24T06:41:59;99559.91;;;30.73;52.95
23170;BME280;11753;43.144;24.714;2023-08-24T06:42:59;99558.81;;;30.74;51.98
23170;BME280;11753;43.144;24.714;2023-08-24T06:44:00;99559.84;;;30.78;52.49
23170;BME280;11753;43.144;24.714;2023-08-24T06:45:03;99564.59;;;30.91;52.81
23170;BME280;11753;43.144;24.714;2023-08-24T06:46:03;99558.50;;;30.99;52.78
23170;BME280;11753;43.144;24.714;2023-08-24T06:47:04;99564.88;;;31.13;52.32
23170;BME280;11753;43.144;24.714;2023-08-24T06:48:07;99560.50;;;31.17;51.61